sensor_id;sensor_type;location;lat;lon;timestamp;P1;durP1;ratioP1;P2;durP2;ratioP2
2129;SDS011;1071;52.544;13.374;2023-04-25T00:02:05;3.50;;;3.20;;
2129;SDS011;1071;52.544;13.374;2023-04-25T00:04:33;5.13;;;3.78;;
2129;SDS011;1071;52.544;13.374;2023-04-25T00:07:04;3.47;;;3.10;;
2129;SDS011;1071;52.544;13.374;2023-04-25T00:09:31;4.68;;;3.10;;
2129;SDS011;1071;52.544;13.374;2023-04-25T00:11:58;4.25;;;3.88;;
2129;SDS011;1071;52.544;13.374;2023-04-25T00:14:26;2.80;;;2.58;;
2129;SDS011;1071;52.544;13.374;2023-04-25T00:16:54;3.80;;;3.15;;
2129;SDS011;1071;52.544;13.374;2023-04-25T00:19:21;8.13;;;6.32;;
2129;SDS011;1071;52.544;13.374;2023-04-25T00:21:48;2.90;;;2.65;;
2129;SDS011;1071;52.544;13.374;2023-04-25T00:24:17;4.85;;;3.72;;
2129;SDS011;1071;52.544;13.374;2023-04-25T00:26:44;3.90;;;2.90;;
2129;SDS011;1071;52.544;13.374;2023-04-25T00:29:11;6.75;;;4.25;;
2129;SDS011;1071;52.544;13.374;2023-04-25T00:31:38;3.72;;;3.10;;
2129;SDS011;1071;52.544;13.374;2023-04-25T00:34:06;3.70;;;3.25;;
2129;SDS011;1071;52.544;13.374;2023-04-25T00:36:33;4.93;;;3.80;;
2129;SDS011;1071;52.544;13.374;2023-04-25T00:39:01;5.55;;;3.50;;
2129;SDS011;1071;52.544;13.374;2023-04-25T00:41:31;6.75;;;2.72;;
2129;SDS011;1071;52.544;13.374;2023-04-25T00:44:01;2.83;;;2.60;;
2129;SDS011;1071;52.544;13.374;2023-04-25T00:46:31;4.18;;;3.78;;
2129;SDS011;1071;52.544;13.374;2023-04-25T00:49:04;5.93;;;2.97;;
2129;SDS011;1071;52.544;13.374;2023-04-25T00:51:32;3.53;;;3.22;;
2129;SDS011;1071;52.544;13.374;2023-04-25T00:54:00;12.80;;;8.13;;
2129;SDS011;1071;52.544;13.374;2023-04-25T00:56:27;6.28;;;4.28;;
2129;SDS011;1071;52.544;13.374;2023-04-25T00:58:56;10.07;;;6.65;;
2129;SDS011;1071;52.544;13.374;2023-04-25T01:01:23;6.63;;;3.78;;
2129;SDS011;1071;52.544;13.374;2023-04-25T01:03:51;8.45;;;3.78;;
2129;SDS011;1071;52.544;13.374;2023-04-25T01:06:20;4.85;;;3.90;;
2129;SDS011;1071;52.544;13.374;2023-04-25T01:08:48;10.10;;;5.18;;
2129;SDS011;1071;52.544;13.374;2023-04-25T01:11:15;5.18;;;3.30;;
2129;SDS011;1071;52.544;13.374;2023-04-25T01:13:42;4.97;;;3.92;;
2129;SDS011;1071;52.544;13.374;2023-04-25T01:16:11;6.30;;;4.00;;
2129;SDS011;1071;52.544;13.374;2023-04-25T01:18:38;6.85;;;4.13;;
2129;SDS011;1071;52.544;13.374;2023-04-25T01:21:08;7.88;;;5.00;;
2129;SDS011;1071;52.544;13.374;2023-04-25T01:23:36;4.53;;;4.13;;
2129;SDS011;1071;52.544;13.374;2023-04-25T01:26:05;7.78;;;4.00;;
2129;SDS011;1071;52.544;13.374;2023-04-25T01:28:36;5.60;;;4.45;;
2129;SDS011;1071;52.544;13.374;2023-04-25T01:31:06;8.82;;;4.75;;
2129;SDS011;1071;52.544;13.374;2023-04-25T01:33:35;5.65;;;3.35;;
2129;SDS011;1071;52.544;13.374;2023-04-25T01:36:04;6.18;;;4.13;;
2129;SDS011;1071;52.544;13.374;2023-04-25T01:38:35;5.57;;;3.30;;
2129;SDS011;1071;52.544;13.374;2023-04-25T01:41:02;4.82;;;4.00;;
2129;SDS011;1071;52.544;13.374;2023-04-25T01:43:29;6.93;;;4.15;;
2129;SDS011;1071;52.544;13.374;2023-04-25T01:45:57;6.93;;;3.55;;
2129;SDS011;1071;52.544;13.374;2023-04-25T01:48:36;4.75;;;3.70;;
2129;SDS011;1071;52.544;13.374;2023-04-25T01:51:04;6.97;;;4.20;;
2129;SDS011;1071;52.544;13.374;2023-04-25T01:53:32;9.52;;;4.43;;
2129;SDS011;1071;52.544;13.374;2023-04-25T01:56:00;6.03;;;4.40;;
2129;SDS011;1071;52.544;13.374;2023-04-25T01:58:27;7.00;;;4.25;;
2129;SDS011;1071;52.544;13.374;2023-04-25T02:00:54;8.23;;;3.63;;
2129;SDS011;1071;52.544;13.374;2023-04-25T02:03:21;6.72;;;3.60;;
2129;SDS011;1071;52.544;13.374;2023-04-25T02:05:48;6.03;;;3.80;;
2129;SDS011;1071;52.544;13.374;2023-04-25T02:08:15;5.45;;;4.30;;
2129;SDS011;1071;52.544;13.374;2023-04-25T02:10:43;4.45;;;3.78;;
2129;SDS011;1071;52.544;13.374;2023-04-25T02:13:12;9.45;;;4.90;;
2129;SDS011;1071;52.544;13.374;2023-04-25T02:15:39;4.95;;;4.05;;
2129;SDS011;1071;52.544;13.374;2023-04-25T02:18:11;5.22;;;3.70;;
2129;SDS011;1071;52.544;13.374;2023-04-25T02:20:38;5.00;;;3.45;;
2129;SDS011;1071;52.544;13.374;2023-04-25T02:23:05;5.60;;;4.10;;
2129;SDS011;1071;52.544;13.374;2023-04-25T02:25:32;7.80;;;5.15;;
2129;SDS011;1071;52.544;13.374;2023-04-25T02:27:59;6.40;;;5.25;;
2129;SDS011;1071;52.544;13.374;2023-04-25T02:30:27;8.63;;;4.55;;
2129;SDS011;1071;52.544;13.374;2023-04-25T02:32:55;5.75;;;3.45;;
2129;SDS011;1071;52.544;13.374;2023-04-25T02:35:22;8.40;;;5.57;;
2129;SDS011;1071;52.544;13.374;2023-04-25T02:37:49;9.63;;;5.90;;
2129;SDS011;1071;52.544;13.374;2023-04-25T02:40:16;4.82;;;4.00;;
2129;SDS011;1071;52.544;13.374;2023-04-25T02:42:43;8.95;;;4.43;;
2129;SDS011;1071;52.544;13.374;2023-04-25T02:45:10;6.53;;;5.07;;
2129;SDS011;1071;52.544;13.374;2023-04-25T02:47:39;5.78;;;5.05;;
2129;SDS011;1071;52.544;13.374;2023-04-25T02:50:09;6.80;;;4.60;;
2129;SDS011;1071;52.544;13.374;2023-04-25T02:52:36;5.60;;;4.97;;
2129;SDS011;1071;52.544;13.374;2023-04-25T02:55:03;6.32;;;4.35;;
2129;SDS011;1071;52.544;13.374;2023-04-25T02:57:31;4.78;;;3.80;;
2129;SDS011;1071;52.544;13.374;2023-04-25T02:59:58;6.70;;;4.25;;
2129;SDS011;1071;52.544;13.374;2023-04-25T03:02:28;4.80;;;4.40;;
2129;SDS011;1071;52.544;13.374;2023-04-25T03:04:57;6.18;;;4.43;;
2129;SDS011;1071;52.544;13.374;2023-04-25T03:07:24;6.15;;;4.00;;
2129;SDS011;1071;52.544;13.374;2023-04-25T03:09:51;6.85;;;5.10;;
2129;SDS011;1071;52.544;13.374;2023-04-25T03:12:18;9.40;;;4.60;;
2129;SDS011;1071;52.544;13.374;2023-04-25T03:14:46;5.68;;;3.95;;
2129;SDS011;1071;52.544;13.374;2023-04-25T03:17:13;7.78;;;4.43;;
2129;SDS011;1071;52.544;13.374;2023-04-25T03:19:41;5.50;;;4.68;;
2129;SDS011;1071;52.544;13.374;2023-04-25T03:22:09;9.73;;;5.32;;
2129;SDS011;1071;52.544;13.374;2023-04-25T03:24:36;6.05;;;4.28;;
2129;SDS011;1071;52.544;13.374;2023-04-25T03:27:04;6.80;;;4.65;;
2129;SDS011;1071;52.544;13.374;2023-04-25T03:29:31;7.53;;;4.43;;
2129;SDS011;1071;52.544;13.374;2023-04-25T03:31:58;7.20;;;4.00;;
2129;SDS011;1071;52.544;13.374;2023-04-25T03:34:25;7.38;;;4.53;;
2129;SDS011;1071;52.544;13.374;2023-04-25T03:36:53;6.05;;;4.20;;
2129;SDS011;1071;52.544;13.374;2023-04-25T03:39:21;7.65;;;5.15;;
2129;SDS011;1071;52.544;13.374;2023-04-25T03:41:51;7.00;;;5.20;;
2129;SDS011;1071;52.544;13.374;2023-04-25T03:44:26;5.07;;;4.57;;
2129;SDS011;1071;52.544;13.374;2023-04-25T03:46:53;6.95;;;4.93;;
2129;SDS011;1071;52.544;13.374;2023-04-25T03:49:20;8.77;;;4.68;;
2129;SDS011;1071;52.544;13.374;2023-04-25T03:51:47;13.32;;;5.43;;
2129;SDS011;1071;52.544;13.374;2023-04-25T03:54:17;7.03;;;5.07;;
2129;SDS011;1071;52.544;13.374;2023-04-25T03:56:45;7.35;;;5.63;;
2129;SDS011;1071;52.544;13.374;2023-04-25T03:59:13;8.27;;;5.45;;
2129;SDS011;1071;52.544;13.374;2023-04-25T04:01:41;10.05;;;6.97;;
2129;SDS011;1071;52.544;13.374;2023-04-25T04:04:08;6.80;;;5.07;;
2129;SDS011;1071;52.544;13.374;2023-04-25T04:06:35;5.65;;;4.68;;
2129;SDS011;1071;52.544;13.374;2023-04-25T04:09:02;7.85;;;5.53;;
2129;SDS011;1071;52.544;13.374;2023-04-25T04:11:29;6.70;;;5.03;;
2129;SDS011;1071;52.544;13.374;2023-04-25T04:13:58;4.63;;;3.85;;
2129;SDS011;1071;52.544;13.374;2023-04-25T04:16:25;7.50;;;4.50;;
2129;SDS011;1071;52.544;13.374;2023-04-25T04:18:52;5.20;;;4.40;;
2129;SDS011;1071;52.544;13.374;2023-04-25T04:21:19;7.00;;;5.68;;
2129;SDS011;1071;52.544;13.374;2023-04-25T04:23:46;6.55;;;4.28;;
2129;SDS011;1071;52.544;13.374;2023-04-25T04:26:13;6.97;;;4.55;;
2129;SDS011;1071;52.544;13.374;2023-04-25T04:28:41;9.02;;;5.10;;
2129;SDS011;1071;52.544;13.374;2023-04-25T04:31:11;4.57;;;4.18;;
2129;SDS011;1071;52.544;13.374;2023-04-25T04:33:40;8.07;;;4.47;;
2129;SDS011;1071;52.544;13.374;2023-04-25T04:36:09;6.85;;;4.15;;
2129;SDS011;1071;52.544;13.374;2023-04-25T04:38:39;5.25;;;4.75;;
2129;SDS011;1071;52.544;13.374;2023-04-25T04:41:07;5.45;;;3.97;;
2129;SDS011;1071;52.544;13.374;2023-04-25T04:43:34;5.47;;;4.50;;
2129;SDS011;1071;52.544;13.374;2023-04-25T04:46:01;5.78;;;4.30;;
2129;SDS011;1071;52.544;13.374;2023-04-25T04:48:38;4.10;;;3.70;;
2129;SDS011;1071;52.544;13.374;2023-04-25T04:51:09;6.28;;;4.53;;
2129;SDS011;1071;52.544;13.374;2023-04-25T04:53:36;10.65;;;5.20;;
2129;SDS011;1071;52.544;13.374;2023-04-25T04:56:05;8.82;;;4.18;;
2129;SDS011;1071;52.544;13.374;2023-04-25T04:58:33;6.05;;;3.67;;
2129;SDS011;1071;52.544;13.374;2023-04-25T05:01:01;6.55;;;4.20;;
2129;SDS011;1071;52.544;13.374;2023-04-25T05:03:29;4.75;;;4.00;;
2129;SDS011;1071;52.544;13.374;2023-04-25T05:05:58;6.18;;;3.95;;
2129;SDS011;1071;52.544;13.374;2023-04-25T05:08:25;6.60;;;4.57;;
2129;SDS011;1071;52.544;13.374;2023-04-25T05:10:52;6.35;;;4.70;;
2129;SDS011;1071;52.544;13.374;2023-04-25T05:13:20;5.95;;;3.83;;
2129;SDS011;1071;52.544;13.374;2023-04-25T05:15:48;5.85;;;4.38;;
2129;SDS011;1071;52.544;13.374;2023-04-25T05:18:17;4.80;;;4.32;;
2129;SDS011;1071;52.544;13.374;2023-04-25T05:20:48;9.20;;;4.50;;
2129;SDS011;1071;52.544;13.374;2023-04-25T05:23:20;7.30;;;5.15;;
2129;SDS011;1071;52.544;13.374;2023-04-25T05:25:48;5.45;;;4.53;;
2129;SDS011;1071;52.544;13.374;2023-04-25T05:28:16;5.80;;;3.90;;
2129;SDS011;1071;52.544;13.374;2023-04-25T05:30:44;6.70;;;5.80;;
2129;SDS011;1071;52.544;13.374;2023-04-25T05:33:11;8.25;;;4.68;;
2129;SDS011;1071;52.544;13.374;2023-04-25T05:35:38;6.68;;;4.93;;
2129;SDS011;1071;52.544;13.374;2023-04-25T05:38:09;8.32;;;5.15;;
2129;SDS011;1071;52.544;13.374;2023-04-25T05:40:39;11.63;;;4.93;;
2129;SDS011;1071;52.544;13.374;2023-04-25T05:43:09;7.45;;;4.30;;
2129;SDS011;1071;52.544;13.374;2023-04-25T05:45:37;4.97;;;4.30;;
2129;SDS011;1071;52.544;13.374;2023-04-25T05:48:05;6.25;;;4.15;;
2129;SDS011;1071;52.544;13.374;2023-04-25T05:50:38;8.45;;;5.03;;
2129;SDS011;1071;52.544;13.374;2023-04-25T05:53:06;6.03;;;4.75;;
2129;SDS011;1071;52.544;13.374;2023-04-25T05:55:40;9.38;;;6.03;;
2129;SDS011;1071;52.544;13.374;2023-04-25T05:58:07;6.63;;;5.38;;
2129;SDS011;1071;52.544;13.374;2023-04-25T06:00:34;6.03;;;4.50;;
2129;SDS011;1071;52.544;13.374;2023-04-25T06:03:05;9.70;;;5.72;;
2129;SDS011;1071;52.544;13.374;2023-04-25T06:05:38;7.75;;;5.35;;
2129;SDS011;1071;52.544;13.374;2023-04-25T06:08:10;8.23;;;4.22;;
2129;SDS011;1071;52.544;13.374;2023-04-25T06:10:40;7.75;;;5.47;;
2129;SDS011;1071;52.544;13.374;2023-04-25T06:13:07;10.20;;;5.40;;
2129;SDS011;1071;52.544;13.374;2023-04-25T06:15:47;9.73;;;4.45;;
2129;SDS011;1071;52.544;13.374;2023-04-25T06:18:14;7.88;;;5.97;;
2129;SDS011;1071;52.544;13.374;2023-04-25T06:20:43;10.00;;;6.68;;
2129;SDS011;1071;52.544;13.374;2023-04-25T06:23:13;6.97;;;5.63;;
2129;SDS011;1071;52.544;13.374;2023-04-25T06:25:41;9.77;;;6.00;;
2129;SDS011;1071;52.544;13.374;2023-04-25T06:28:08;7.38;;;4.90;;
2129;SDS011;1071;52.544;13.374;2023-04-25T06:30:38;8.25;;;4.80;;
2129;SDS011;1071;52.544;13.374;2023-04-25T06:33:10;6.18;;;4.88;;
2129;SDS011;1071;52.544;13.374;2023-04-25T06:35:40;5.57;;;5.07;;
2129;SDS011;1071;52.544;13.374;2023-04-25T06:38:07;7.47;;;5.10;;
2129;SDS011;1071;52.544;13.374;2023-04-25T06:40:34;7.00;;;4.85;;
2129;SDS011;1071;52.544;13.374;2023-04-25T06:43:03;8.68;;;5.07;;
2129;SDS011;1071;52.544;13.374;2023-04-25T06:45:32;5.25;;;4.55;;
2129;SDS011;1071;52.544;13.374;2023-04-25T06:47:59;7.38;;;5.03;;
2129;SDS011;1071;52.544;13.374;2023-04-25T06:50:26;5.47;;;4.72;;
2129;SDS011;1071;52.544;13.374;2023-04-25T06:52:53;6.55;;;4.78;;
2129;SDS011;1071;52.544;13.374;2023-04-25T06:55:23;4.53;;;4.10;;
2129;SDS011;1071;52.544;13.374;2023-04-25T06:57:50;6.93;;;5.05;;
2129;SDS011;1071;52.544;13.374;2023-04-25T07:00:19;4.97;;;4.40;;
2129;SDS011;1071;52.544;13.374;2023-04-25T07:02:47;4.78;;;4.32;;
2129;SDS011;1071;52.544;13.374;2023-04-25T07:05:20;4.72;;;4.15;;
2129;SDS011;1071;52.544;13.374;2023-04-25T07:07:50;8.52;;;5.68;;
2129;SDS011;1071;52.544;13.374;2023-04-25T07:10:16;7.88;;;5.05;;
2129;SDS011;1071;52.544;13.374;2023-04-25T07:12:44;7.35;;;5.47;;
2129;SDS011;1071;52.544;13.374;2023-04-25T07:15:17;6.35;;;5.60;;
2129;SDS011;1071;52.544;13.374;2023-04-25T07:17:45;8.13;;;4.00;;
2129;SDS011;1071;52.544;13.374;2023-04-25T07:20:12;5.38;;;4.88;;
2129;SDS011;1071;52.544;13.374;2023-04-25T07:22:41;3.92;;;3.58;;
2129;SDS011;1071;52.544;13.374;2023-04-25T07:25:09;6.85;;;3.75;;
2129;SDS011;1071;52.544;13.374;2023-04-25T07:27:36;9.40;;;4.32;;
2129;SDS011;1071;52.544;13.374;2023-04-25T07:30:04;8.25;;;4.38;;
2129;SDS011;1071;52.544;13.374;2023-04-25T07:32:35;7.63;;;4.82;;
2129;SDS011;1071;52.544;13.374;2023-04-25T07:35:02;10.55;;;5.47;;
2129;SDS011;1071;52.544;13.374;2023-04-25T07:37:29;10.35;;;7.28;;
2129;SDS011;1071;52.544;13.374;2023-04-25T07:39:58;6.75;;;4.45;;
2129;SDS011;1071;52.544;13.374;2023-04-25T07:42:25;5.60;;;4.30;;
2129;SDS011;1071;52.544;13.374;2023-04-25T07:44:52;6.25;;;4.50;;
2129;SDS011;1071;52.544;13.374;2023-04-25T07:47:20;7.97;;;4.60;;
2129;SDS011;1071;52.544;13.374;2023-04-25T07:49:48;5.75;;;3.92;;
2129;SDS011;1071;52.544;13.374;2023-04-25T07:52:15;9.45;;;5.90;;
2129;SDS011;1071;52.544;13.374;2023-04-25T07:54:42;16.05;;;6.50;;
2129;SDS011;1071;52.544;13.374;2023-04-25T07:57:10;12.93;;;5.90;;
2129;SDS011;1071;52.544;13.374;2023-04-25T07:59:38;8.60;;;5.25;;
2129;SDS011;1071;52.544;13.374;2023-04-25T08:02:06;11.07;;;5.05;;
2129;SDS011;1071;52.544;13.374;2023-04-25T08:04:33;8.38;;;4.38;;
2129;SDS011;1071;52.544;13.374;2023-04-25T08:07:01;6.78;;;4.75;;
2129;SDS011;1071;52.544;13.374;2023-04-25T08:09:40;9.73;;;4.72;;
2129;SDS011;1071;52.544;13.374;2023-04-25T08:12:10;12.75;;;6.20;;
2129;SDS011;1071;52.544;13.374;2023-04-25T08:14:37;10.73;;;4.78;;
2129;SDS011;1071;52.544;13.374;2023-04-25T08:17:16;9.57;;;4.85;;
2129;SDS011;1071;52.544;13.374;2023-04-25T08:19:43;10.02;;;4.32;;
2129;SDS011;1071;52.544;13.374;2023-04-25T08:22:11;8.07;;;3.85;;
2129;SDS011;1071;52.544;13.374;2023-04-25T08:24:39;11.93;;;4.55;;
2129;SDS011;1071;52.544;13.374;2023-04-25T08:27:06;8.48;;;4.50;;
2129;SDS011;1071;52.544;13.374;2023-04-25T08:29:34;12.10;;;4.35;;
2129;SDS011;1071;52.544;13.374;2023-04-25T08:32:03;9.65;;;4.20;;
2129;SDS011;1071;52.544;13.374;2023-04-25T08:34:31;7.80;;;4.85;;
2129;SDS011;1071;52.544;13.374;2023-04-25T08:36:58;9.02;;;3.60;;
2129;SDS011;1071;52.544;13.374;2023-04-25T08:39:26;15.45;;;6.00;;
2129;SDS011;1071;52.544;13.374;2023-04-25T08:41:56;6.65;;;3.70;;
2129;SDS011;1071;52.544;13.374;2023-04-25T08:44:23;7.30;;;4.50;;
2129;SDS011;1071;52.544;13.374;2023-04-25T08:46:51;7.93;;;4.25;;
2129;SDS011;1071;52.544;13.374;2023-04-25T08:49:18;7.45;;;4.72;;
2129;SDS011;1071;52.544;13.374;2023-04-25T08:51:46;12.52;;;7.60;;
2129;SDS011;1071;52.544;13.374;2023-04-25T08:54:15;10.20;;;4.50;;
2129;SDS011;1071;52.544;13.374;2023-04-25T08:56:45;13.90;;;5.03;;
2129;SDS011;1071;52.544;13.374;2023-04-25T08:59:13;12.10;;;4.95;;
2129;SDS011;1071;52.544;13.374;2023-04-25T09:01:40;5.45;;;3.17;;
2129;SDS011;1071;52.544;13.374;2023-04-25T09:04:08;7.57;;;3.30;;
2129;SDS011;1071;52.544;13.374;2023-04-25T09:06:35;8.48;;;3.33;;
2129;SDS011;1071;52.544;13.374;2023-04-25T09:09:02;13.18;;;6.80;;
2129;SDS011;1071;52.544;13.374;2023-04-25T09:11:30;9.80;;;4.68;;
2129;SDS011;1071;52.544;13.374;2023-04-25T09:14:12;6.45;;;3.80;;
2129;SDS011;1071;52.544;13.374;2023-04-25T09:19:29;10.05;;;4.00;;
2129;SDS011;1071;52.544;13.374;2023-04-25T09:21:58;7.57;;;4.85;;
2129;SDS011;1071;52.544;13.374;2023-04-25T09:24:33;9.00;;;4.07;;
2129;SDS011;1071;52.544;13.374;2023-04-25T09:27:05;8.50;;;4.15;;
2129;SDS011;1071;52.544;13.374;2023-04-25T09:29:34;12.60;;;4.77;;
2129;SDS011;1071;52.544;13.374;2023-04-25T09:32:13;7.50;;;3.70;;
2129;SDS011;1071;52.544;13.374;2023-04-25T09:34:43;8.20;;;4.10;;
2129;SDS011;1071;52.544;13.374;2023-04-25T09:37:18;8.13;;;3.03;;
2129;SDS011;1071;52.544;13.374;2023-04-25T09:39:47;9.93;;;4.70;;
2129;SDS011;1071;52.544;13.374;2023-04-25T09:42:15;11.43;;;3.97;;
2129;SDS011;1071;52.544;13.374;2023-04-25T09:44:45;5.30;;;3.03;;
2129;SDS011;1071;52.544;13.374;2023-04-25T09:47:13;8.60;;;3.90;;
2129;SDS011;1071;52.544;13.374;2023-04-25T09:49:42;7.43;;;3.40;;
2129;SDS011;1071;52.544;13.374;2023-04-25T09:52:13;9.33;;;3.37;;
2129;SDS011;1071;52.544;13.374;2023-04-25T09:54:42;8.40;;;3.37;;
2129;SDS011;1071;52.544;13.374;2023-04-25T09:57:11;10.53;;;3.40;;
2129;SDS011;1071;52.544;13.374;2023-04-25T09:59:39;7.03;;;2.50;;
2129;SDS011;1071;52.544;13.374;2023-04-25T10:02:11;5.60;;;2.92;;
2129;SDS011;1071;52.544;13.374;2023-04-25T10:04:40;4.05;;;3.50;;
2129;SDS011;1071;52.544;13.374;2023-04-25T10:07:07;6.53;;;3.53;;
2129;SDS011;1071;52.544;13.374;2023-04-25T10:09:36;6.95;;;2.58;;
2129;SDS011;1071;52.544;13.374;2023-04-25T10:12:04;6.47;;;2.22;;
2129;SDS011;1071;52.544;13.374;2023-04-25T10:14:34;6.40;;;3.30;;
2129;SDS011;1071;52.544;13.374;2023-04-25T10:17:02;8.30;;;3.35;;
2129;SDS011;1071;52.544;13.374;2023-04-25T10:19:31;5.15;;;4.20;;
2129;SDS011;1071;52.544;13.374;2023-04-25T10:22:03;12.07;;;5.43;;
2129;SDS011;1071;52.544;13.374;2023-04-25T10:24:34;19.83;;;7.65;;
2129;SDS011;1071;52.544;13.374;2023-04-25T10:27:03;5.83;;;3.50;;
2129;SDS011;1071;52.544;13.374;2023-04-25T10:29:31;7.50;;;3.30;;
2129;SDS011;1071;52.544;13.374;2023-04-25T10:31:59;7.43;;;2.90;;
2129;SDS011;1071;52.544;13.374;2023-04-25T10:34:38;10.40;;;3.30;;
2129;SDS011;1071;52.544;13.374;2023-04-25T10:37:12;5.78;;;3.60;;
2129;SDS011;1071;52.544;13.374;2023-04-25T10:39:40;6.40;;;2.80;;
2129;SDS011;1071;52.544;13.374;2023-04-25T10:42:08;6.00;;;2.97;;
2129;SDS011;1071;52.544;13.374;2023-04-25T10:44:36;6.13;;;3.75;;
2129;SDS011;1071;52.544;13.374;2023-04-25T10:47:05;5.95;;;3.47;;
2129;SDS011;1071;52.544;13.374;2023-04-25T10:49:34;5.53;;;2.57;;
2129;SDS011;1071;52.544;13.374;2023-04-25T10:52:16;6.07;;;4.00;;
2129;SDS011;1071;52.544;13.374;2023-04-25T10:54:48;5.65;;;3.67;;
2129;SDS011;1071;52.544;13.374;2023-04-25T10:57:36;8.27;;;3.80;;
2129;SDS011;1071;52.544;13.374;2023-04-25T11:00:06;5.90;;;3.35;;
2129;SDS011;1071;52.544;13.374;2023-04-25T11:02:42;4.93;;;2.90;;
2129;SDS011;1071;52.544;13.374;2023-04-25T11:05:15;5.20;;;3.30;;
2129;SDS011;1071;52.544;13.374;2023-04-25T11:07:50;6.53;;;2.80;;
2129;SDS011;1071;52.544;13.374;2023-04-25T11:10:19;4.80;;;2.57;;
2129;SDS011;1071;52.544;13.374;2023-04-25T11:12:46;5.13;;;3.27;;
2129;SDS011;1071;52.544;13.374;2023-04-25T11:15:13;6.40;;;2.73;;
2129;SDS011;1071;52.544;13.374;2023-04-25T11:17:43;6.53;;;2.60;;
2129;SDS011;1071;52.544;13.374;2023-04-25T11:20:12;7.00;;;3.72;;
2129;SDS011;1071;52.544;13.374;2023-04-25T11:22:40;7.70;;;2.87;;
2129;SDS011;1071;52.544;13.374;2023-04-25T11:25:10;5.68;;;3.22;;
2129;SDS011;1071;52.544;13.374;2023-04-25T11:27:38;6.90;;;3.30;;
2129;SDS011;1071;52.544;13.374;2023-04-25T11:30:15;4.90;;;2.53;;
2129;SDS011;1071;52.544;13.374;2023-04-25T11:32:43;8.82;;;2.65;;
2129;SDS011;1071;52.544;13.374;2023-04-25T11:35:10;13.18;;;4.35;;
2129;SDS011;1071;52.544;13.374;2023-04-25T11:37:38;4.30;;;2.80;;
2129;SDS011;1071;52.544;13.374;2023-04-25T11:40:06;10.20;;;3.15;;
2129;SDS011;1071;52.544;13.374;2023-04-25T11:42:43;4.80;;;2.20;;
2129;SDS011;1071;52.544;13.374;2023-04-25T11:45:15;2.87;;;2.27;;
2129;SDS011;1071;52.544;13.374;2023-04-25T11:47:43;5.07;;;2.78;;
2129;SDS011;1071;52.544;13.374;2023-04-25T11:50:11;5.35;;;2.53;;
2129;SDS011;1071;52.544;13.374;2023-04-25T11:52:39;9.35;;;2.90;;
2129;SDS011;1071;52.544;13.374;2023-04-25T11:55:08;6.67;;;2.93;;
2129;SDS011;1071;52.544;13.374;2023-04-25T11:57:38;6.67;;;3.50;;
2129;SDS011;1071;52.544;13.374;2023-04-25T12:00:08;2.53;;;2.10;;
2129;SDS011;1071;52.544;13.374;2023-04-25T12:02:40;3.90;;;2.33;;
2129;SDS011;1071;52.544;13.374;2023-04-25T12:05:07;4.05;;;2.80;;
2129;SDS011;1071;52.544;13.374;2023-04-25T12:07:35;3.80;;;2.30;;
2129;SDS011;1071;52.544;13.374;2023-04-25T12:10:04;5.43;;;2.40;;
2129;SDS011;1071;52.544;13.374;2023-04-25T12:12:33;4.73;;;2.40;;
2129;SDS011;1071;52.544;13.374;2023-04-25T12:15:09;9.93;;;2.87;;
2129;SDS011;1071;52.544;13.374;2023-04-25T12:17:37;4.63;;;2.70;;
2129;SDS011;1071;52.544;13.374;2023-04-25T12:20:06;3.53;;;2.40;;
2129;SDS011;1071;52.544;13.374;2023-04-25T12:22:35;7.00;;;3.17;;
2129;SDS011;1071;52.544;13.374;2023-04-25T12:25:03;6.57;;;2.72;;
2129;SDS011;1071;52.544;13.374;2023-04-25T12:27:31;5.17;;;2.70;;
2129;SDS011;1071;52.544;13.374;2023-04-25T12:29:58;5.63;;;2.53;;
2129;SDS011;1071;52.544;13.374;2023-04-25T12:32:28;7.63;;;3.27;;
2129;SDS011;1071;52.544;13.374;2023-04-25T12:34:55;3.77;;;2.80;;
2129;SDS011;1071;52.544;13.374;2023-04-25T12:37:22;7.93;;;2.30;;
2129;SDS011;1071;52.544;13.374;2023-04-25T12:39:49;5.13;;;2.25;;
2129;SDS011;1071;52.544;13.374;2023-04-25T12:42:16;7.07;;;2.83;;
2129;SDS011;1071;52.544;13.374;2023-04-25T12:44:43;6.45;;;3.25;;
2129;SDS011;1071;52.544;13.374;2023-04-25T12:47:11;7.70;;;2.70;;
2129;SDS011;1071;52.544;13.374;2023-04-25T12:49:43;7.80;;;3.00;;
2129;SDS011;1071;52.544;13.374;2023-04-25T12:52:11;4.83;;;2.63;;
2129;SDS011;1071;52.544;13.374;2023-04-25T12:54:38;10.63;;;3.37;;
2129;SDS011;1071;52.544;13.374;2023-04-25T12:57:06;5.17;;;2.60;;
2129;SDS011;1071;52.544;13.374;2023-04-25T12:59:33;4.60;;;3.17;;
2129;SDS011;1071;52.544;13.374;2023-04-25T13:02:00;6.50;;;4.03;;
2129;SDS011;1071;52.544;13.374;2023-04-25T13:04:27;4.70;;;2.47;;
2129;SDS011;1071;52.544;13.374;2023-04-25T13:06:56;3.80;;;2.30;;
2129;SDS011;1071;52.544;13.374;2023-04-25T13:09:25;5.00;;;1.93;;
2129;SDS011;1071;52.544;13.374;2023-04-25T13:11:52;4.03;;;1.77;;
2129;SDS011;1071;52.544;13.374;2023-04-25T13:14:19;5.68;;;3.15;;
2129;SDS011;1071;52.544;13.374;2023-04-25T13:16:46;2.70;;;1.70;;
2129;SDS011;1071;52.544;13.374;2023-04-25T13:19:14;2.73;;;2.20;;
2129;SDS011;1071;52.544;13.374;2023-04-25T13:21:42;5.10;;;1.90;;
2129;SDS011;1071;52.544;13.374;2023-04-25T13:24:10;3.17;;;1.67;;
2129;SDS011;1071;52.544;13.374;2023-04-25T13:26:37;10.33;;;2.70;;
2129;SDS011;1071;52.544;13.374;2023-04-25T13:29:13;4.68;;;2.40;;
2129;SDS011;1071;52.544;13.374;2023-04-25T13:31:40;5.37;;;2.57;;
2129;SDS011;1071;52.544;13.374;2023-04-25T13:34:07;4.23;;;1.83;;
2129;SDS011;1071;52.544;13.374;2023-04-25T13:36:35;3.60;;;2.20;;
2129;SDS011;1071;52.544;13.374;2023-04-25T13:39:02;6.47;;;2.80;;
2129;SDS011;1071;52.544;13.374;2023-04-25T13:41:31;5.30;;;2.83;;
2129;SDS011;1071;52.544;13.374;2023-04-25T13:43:58;6.03;;;3.42;;
2129;SDS011;1071;52.544;13.374;2023-04-25T13:46:26;3.57;;;2.93;;
2129;SDS011;1071;52.544;13.374;2023-04-25T13:48:53;3.85;;;2.80;;
2129;SDS011;1071;52.544;13.374;2023-04-25T13:51:20;4.67;;;3.00;;
2129;SDS011;1071;52.544;13.374;2023-04-25T13:53:47;5.63;;;2.70;;
2129;SDS011;1071;52.544;13.374;2023-04-25T13:56:14;2.83;;;2.00;;
2129;SDS011;1071;52.544;13.374;2023-04-25T13:58:42;3.83;;;2.10;;
2129;SDS011;1071;52.544;13.374;2023-04-25T14:01:11;3.83;;;2.35;;
2129;SDS011;1071;52.544;13.374;2023-04-25T14:03:47;3.63;;;2.40;;
2129;SDS011;1071;52.544;13.374;2023-04-25T14:06:15;5.88;;;3.92;;
2129;SDS011;1071;52.544;13.374;2023-04-25T14:08:47;3.65;;;2.08;;
2129;SDS011;1071;52.544;13.374;2023-04-25T14:11:14;3.53;;;2.00;;
2129;SDS011;1071;52.544;13.374;2023-04-25T14:13:44;5.28;;;2.15;;
2129;SDS011;1071;52.544;13.374;2023-04-25T14:16:11;5.20;;;3.20;;
2129;SDS011;1071;52.544;13.374;2023-04-25T14:18:40;5.32;;;2.95;;
2129;SDS011;1071;52.544;13.374;2023-04-25T14:21:07;4.00;;;2.30;;
2129;SDS011;1071;52.544;13.374;2023-04-25T14:23:36;3.45;;;2.58;;
2129;SDS011;1071;52.544;13.374;2023-04-25T14:26:04;5.90;;;2.15;;
2129;SDS011;1071;52.544;13.374;2023-04-25T14:28:32;5.43;;;2.70;;
2129;SDS011;1071;52.544;13.374;2023-04-25T14:31:00;2.60;;;1.73;;
2129;SDS011;1071;52.544;13.374;2023-04-25T14:33:27;3.58;;;1.80;;
2129;SDS011;1071;52.544;13.374;2023-04-25T14:35:54;2.28;;;2.05;;
2129;SDS011;1071;52.544;13.374;2023-04-25T14:38:21;3.37;;;2.60;;
2129;SDS011;1071;52.544;13.374;2023-04-25T14:40:50;7.47;;;3.72;;
2129;SDS011;1071;52.544;13.374;2023-04-25T14:43:18;5.25;;;3.35;;
2129;SDS011;1071;52.544;13.374;2023-04-25T14:45:45;14.82;;;8.00;;
2129;SDS011;1071;52.544;13.374;2023-04-25T14:48:14;5.25;;;3.05;;
2129;SDS011;1071;52.544;13.374;2023-04-25T14:50:44;6.13;;;2.90;;
2129;SDS011;1071;52.544;13.374;2023-04-25T14:53:11;7.47;;;4.17;;
2129;SDS011;1071;52.544;13.374;2023-04-25T14:55:41;4.03;;;3.00;;
2129;SDS011;1071;52.544;13.374;2023-04-25T14:58:11;4.55;;;2.80;;
2129;SDS011;1071;52.544;13.374;2023-04-25T15:00:38;5.32;;;2.90;;
2129;SDS011;1071;52.544;13.374;2023-04-25T15:03:05;6.75;;;3.90;;
2129;SDS011;1071;52.544;13.374;2023-04-25T15:05:35;8.10;;;3.72;;
2129;SDS011;1071;52.544;13.374;2023-04-25T15:08:03;3.53;;;2.53;;
2129;SDS011;1071;52.544;13.374;2023-04-25T15:10:30;2.95;;;2.00;;
2129;SDS011;1071;52.544;13.374;2023-04-25T15:12:57;9.13;;;2.10;;